sensor_id;sensor_type;location;lat;lon;timestamp;temperature;humidity
20284;DHT22;10301;50.832;4.080;2022-12-18T00:00:47;-3.20;43.20
20284;DHT22;10301;50.832;4.080;2022-12-18T00:03:15;-3.20;39.10
20284;DHT22;10301;50.832;4.080;2022-12-18T00:05:48;-3.40;37.20
20284;DHT22;10301;50.832;4.080;2022-12-18T00:08:14;-3.20;38.90
20284;DHT22;10301;50.832;4.080;2022-12-18T00:10:40;-3.20;35.80
20284;DHT22;10301;50.832;4.080;2022-12-18T00:13:05;-3.40;36.60
20284;DHT22;10301;50.832;4.080;2022-12-18T00:15:36;-3.50;43.20
20284;DHT22;10301;50.832;4.080;2022-12-18T00:18:02;-3.70;48.60
20284;DHT22;10301;50.832;4.080;2022-12-18T00:20:28;-3.80;53.40
20284;DHT22;10301;50.832;4.080;2022-12-18T00:22:54;-3.70;56.80
20284;DHT22;10301;50.832;4.080;2022-12-18T00:25:20;-3.80;58.40
20284;DHT22;10301;50.832;4.080;2022-12-18T00:27:46;-3.70;59.10
20284;DHT22;10301;50.832;4.080;2022-12-18T00:30:12;-3.60;59.00
20284;DHT22;10301;50.832;4.080;2022-12-18T00:32:38;-3.80;56.30
20284;DHT22;10301;50.832;4.080;2022-12-18T00:35:04;-3.70;55.80
20284;DHT22;10301;50.832;4.080;2022-12-18T00:37:30;-3.70;54.70
20284;DHT22;10301;50.832;4.080;2022-12-18T00:39:56;-3.70;53.30
20284;DHT22;10301;50.832;4.080;2022-12-18T00:42:22;-3.80;53.10
20284;DHT22;10301;50.832;4.080;2022-12-18T00:45:06;-3.70;53.20
20284;DHT22;10301;50.832;4.080;2022-12-18T00:47:32;-3.80;52.00
20284;DHT22;10301;50.832;4.080;2022-12-18T00:49:57;-3.70;52.70
20284;DHT22;10301;50.832;4.080;2022-12-18T00:52:23;-3.80;48.90
20284;DHT22;10301;50.832;4.080;2022-12-18T00:54:48;-3.90;46.30
20284;DHT22;10301;50.832;4.080;2022-12-18T00:57:14;-3.90;45.00
20284;DHT22;10301;50.832;4.080;2022-12-18T00:59:40;-3.90;42.30
20284;DHT22;10301;50.832;4.080;2022-12-18T01:02:05;-3.90;40.90
20284;DHT22;10301;50.832;4.080;2022-12-18T01:04:32;-4.00;47.10
20284;DHT22;10301;50.832;4.080;2022-12-18T01:06:57;-4.10;49.80
20284;DHT22;10301;50.832;4.080;2022-12-18T01:09:23;-4.30;51.80
20284;DHT22;10301;50.832;4.080;2022-12-18T01:11:49;-4.40;55.80
20284;DHT22;10301;50.832;4.080;2022-12-18T01:14:15;-4.40;59.20
20284;DHT22;10301;50.832;4.080;2022-12-18T01:16:40;-4.30;59.80
20284;DHT22;10301;50.832;4.080;2022-12-18T01:19:06;-4.10;57.50
20284;DHT22;10301;50.832;4.080;2022-12-18T01:21:32;-4.20;53.30
20284;DHT22;10301;50.832;4.080;2022-12-18T01:23:57;-4.20;50.20
20284;DHT22;10301;50.832;4.080;2022-12-18T01:26:24;-4.00;48.10
20284;DHT22;10301;50.832;4.080;2022-12-18T01:28:50;-4.10;44.70
20284;DHT22;10301;50.832;4.080;2022-12-18T01:33:47;-4.30;36.30
20284;DHT22;10301;50.832;4.080;2022-12-18T01:36:18;-4.30;35.90
20284;DHT22;10301;50.832;4.080;2022-12-18T01:38:44;-4.20;41.10
20284;DHT22;10301;50.832;4.080;2022-12-18T01:41:11;-4.00;44.10
20284;DHT22;10301;50.832;4.080;2022-12-18T01:43:54;-4.00;45.50
20284;DHT22;10301;50.832;4.080;2022-12-18T01:46:22;-3.90;49.10
20284;DHT22;10301;50.832;4.080;2022-12-18T01:48:49;-3.90;50.40
20284;DHT22;10301;50.832;4.080;2022-12-18T01:51:16;-3.90;50.90
20284;DHT22;10301;50.832;4.080;2022-12-18T01:53:42;-3.80;49.80
20284;DHT22;10301;50.832;4.080;2022-12-18T01:56:15;-3.70;46.50
20284;DHT22;10301;50.832;4.080;2022-12-18T01:58:58;-3.60;43.10
20284;DHT22;10301;50.832;4.080;2022-12-18T02:01:26;-3.50;36.90
20284;DHT22;10301;50.832;4.080;2022-12-18T02:03:52;-3.40;29.10
20284;DHT22;10301;50.832;4.080;2022-12-18T02:06:29;-3.50;22.30
20284;DHT22;10301;50.832;4.080;2022-12-18T02:12:12;-3.90;16.90
20284;DHT22;10301;50.832;4.080;2022-12-18T02:17:43;-3.80;16.10
20284;DHT22;10301;50.832;4.080;2022-12-18T02:26:05;-4.00;14.80
20284;DHT22;10301;50.832;4.080;2022-12-18T02:28:35;-4.10;13.30
20284;DHT22;10301;50.832;4.080;2022-12-18T02:31:04;-4.20;12.10
20284;DHT22;10301;50.832;4.080;2022-12-18T02:33:32;-4.20;13.40
20284;DHT22;10301;50.832;4.080;2022-12-18T02:36:00;-4.20;13.50
20284;DHT22;10301;50.832;4.080;2022-12-18T02:38:27;-4.20;12.70
20284;DHT22;10301;50.832;4.080;2022-12-18T02:40:54;-4.10;12.50
20284;DHT22;10301;50.832;4.080;2022-12-18T02:43:21;-4.10;11.10
20284;DHT22;10301;50.832;4.080;2022-12-18T02:45:54;-4.10;16.50
20284;DHT22;10301;50.832;4.080;2022-12-18T02:48:35;-4.50;23.80
20284;DHT22;10301;50.832;4.080;2022-12-18T02:51:11;-4.50;33.40
20284;DHT22;10301;50.832;4.080;2022-12-18T02:53:48;-4.40;34.40
20284;DHT22;10301;50.832;4.080;2022-12-18T02:56:24;-4.20;31.60
20284;DHT22;10301;50.832;4.080;2022-12-18T03:01:40;-4.20;18.40
20284;DHT22;10301;50.832;4.080;2022-12-18T03:06:59;-4.50;6.60
20284;DHT22;10301;50.832;4.080;2022-12-18T03:09:36;-4.70;7.30
20284;DHT22;10301;50.832;4.080;2022-12-18T03:12:22;-4.80;10.90
20284;DHT22;10301;50.832;4.080;2022-12-18T03:14:58;-4.90;14.40
20284;DHT22;10301;50.832;4.080;2022-12-18T03:17:27;-4.90;16.00
20284;DHT22;10301;50.832;4.080;2022-12-18T03:19:56;-4.90;17.90
20284;DHT22;10301;50.832;4.080;2022-12-18T03:22:24;-4.70;19.80
20284;DHT22;10301;50.832;4.080;2022-12-18T03:24:53;-4.70;15.30
20284;DHT22;10301;50.832;4.080;2022-12-18T03:27:21;-4.50;10.50
20284;DHT22;10301;50.832;4.080;2022-12-18T03:30:09;-4.40;1.00
20284;DHT22;10301;50.832;4.080;2022-12-18T03:35:58;-4.80;1.00
20284;DHT22;10301;50.832;4.080;2022-12-18T03:38:24;-4.70;1.00
20284;DHT22;10301;50.832;4.080;2022-12-18T03:43:35;-4.60;1.00
20284;DHT22;10301;50.832;4.080;2022-12-18T03:46:11;-4.50;1.00
20284;DHT22;10301;50.832;4.080;2022-12-18T03:48:47;-4.50;1.00
20284;DHT22;10301;50.832;4.080;2022-12-18T03:51:24;-4.40;1.00
20284;DHT22;10301;50.832;4.080;2022-12-18T03:53:53;-4.40;1.00
20284;DHT22;10301;50.832;4.080;2022-12-18T03:56:22;-4.40;1.00
20284;DHT22;10301;50.832;4.080;2022-12-18T03:58:50;-4.50;1.00
20284;DHT22;10301;50.832;4.080;2022-12-18T04:01:19;-4.60;1.00
20284;DHT22;10301;50.832;4.080;2022-12-18T04:03:47;-4.80;1.00
20284;DHT22;10301;50.832;4.080;2022-12-18T04:06:15;-4.90;1.00
20284;DHT22;10301;50.832;4.080;2022-12-18T04:08:41;-4.80;1.00
20284;DHT22;10301;50.832;4.080;2022-12-18T04:11:07;-4.80;1.00
20284;DHT22;10301;50.832;4.080;2022-12-18T04:13:35;-4.70;1.00
20284;DHT22;10301;50.832;4.080;2022-12-18T04:16:02;-4.70;1.00
20284;DHT22;10301;50.832;4.080;2022-12-18T04:18:28;-4.60;1.00
20284;DHT22;10301;50.832;4.080;2022-12-18T04:20:53;-4.60;1.00
20284;DHT22;10301;50.832;4.080;2022-12-18T04:23:19;-4.60;1.00
20284;DHT22;10301;50.832;4.080;2022-12-18T04:25:46;-4.70;1.00
20284;DHT22;10301;50.832;4.080;2022-12-18T04:28:12;-4.80;1.00
20284;DHT22;10301;50.832;4.080;2022-12-18T04:30:38;-4.70;1.00
20284;DHT22;10301;50.832;4.080;2022-12-18T04:33:03;-4.70;1.00
20284;DHT22;10301;50.832;4.080;2022-12-18T04:35:29;-4.60;1.00
20284;DHT22;10301;50.832;4.080;2022-12-18T04:37:55;-4.60;1.00
20284;DHT22;10301;50.832;4.080;2022-12-18T04:40:21;-4.50;1.00
20284;DHT22;10301;50.832;4.080;2022-12-18T04:42:46;-4.50;1.00
20284;DHT22;10301;50.832;4.080;2022-12-18T04:45:12;-4.40;1.00
20284;DHT22;10301;50.832;4.080;2022-12-18T04:47:37;-4.40;1.00
20284;DHT22;10301;50.832;4.080;2022-12-18T04:50:03;-4.50;1.00
20284;DHT22;10301;50.832;4.080;2022-12-18T04:52:29;-4.50;1.00
20284;DHT22;10301;50.832;4.080;2022-12-18T04:54:55;-4.50;1.00
20284;DHT22;10301;50.832;4.080;2022-12-18T04:57:20;-4.60;1.00
20284;DHT22;10301;50.832;4.080;2022-12-18T04:59:46;-4.60;1.00
20284;DHT22;10301;50.832;4.080;2022-12-18T05:02:12;-4.60;1.00
20284;DHT22;10301;50.832;4.080;2022-12-18T05:04:37;-4.70;1.00
20284;DHT22;10301;50.832;4.080;2022-12-18T05:07:03;-4.70;1.00
20284;DHT22;10301;50.832;4.080;2022-12-18T05:09:29;-4.80;1.00
20284;DHT22;10301;50.832;4.080;2022-12-18T05:11:55;-4.80;1.00
20284;DHT22;10301;50.832;4.080;2022-12-18T05:14:20;-5.10;1.00
20284;DHT22;10301;50.832;4.080;2022-12-18T05:16:46;-5.20;6.10
20284;DHT22;10301;50.832;4.080;2022-12-18T05:19:12;-5.30;14.40
20284;DHT22;10301;50.832;4.080;2022-12-18T05:21:37;-5.30;24.20
20284;DHT22;10301;50.832;4.080;2022-12-18T05:24:03;-5.30;29.70
20284;DHT22;10301;50.832;4.080;2022-12-18T05:26:30;-5.20;31.40
20284;DHT22;10301;50.832;4.080;2022-12-18T05:28:56;-5.10;30.00
20284;DHT22;10301;50.832;4.080;2022-12-18T05:31:21;-5.00;27.80
20284;DHT22;10301;50.832;4.080;2022-12-18T05:33:47;-4.80;24.20
20284;DHT22;10301;50.832;4.080;2022-12-18T05:36:14;-4.70;15.00
20284;DHT22;10301;50.832;4.080;2022-12-18T05:38:40;-4.60;10.00
20284;DHT22;10301;50.832;4.080;2022-12-18T05:41:07;-4.40;4.40
20284;DHT22;10301;50.832;4.080;2022-12-18T05:43:36;-4.30;1.00
20284;DHT22;10301;50.832;4.080;2022-12-18T05:46:12;-4.30;1.00
20284;DHT22;10301;50.832;4.080;2022-12-18T05:48:38;-4.50;1.00
20284;DHT22;10301;50.832;4.080;2022-12-18T05:51:13;-4.70;1.00
20284;DHT22;10301;50.832;4.080;2022-12-18T05:53:40;-4.70;1.00
20284;DHT22;10301;50.832;4.080;2022-12-18T05:56:11;-4.70;1.00
20284;DHT22;10301;50.832;4.080;2022-12-18T05:58:37;-4.70;1.00
20284;DHT22;10301;50.832;4.080;2022-12-18T06:01:08;-4.80;1.00
20284;DHT22;10301;50.832;4.080;2022-12-18T06:03:35;-4.70;1.00
20284;DHT22;10301;50.832;4.080;2022-12-18T06:06:00;-4.70;1.00
20284;DHT22;10301;50.832;4.080;2022-12-18T06:08:26;-4.70;1.00
20284;DHT22;10301;50.832;4.080;2022-12-18T06:10:52;-4.60;1.00
20284;DHT22;10301;50.832;4.080;2022-12-18T06:13:18;-4.60;1.00
20284;DHT22;10301;50.832;4.080;2022-12-18T06:15:44;-4.50;1.00
20284;DHT22;10301;50.832;4.080;2022-12-18T06:18:10;-4.50;1.00
20284;DHT22;10301;50.832;4.080;2022-12-18T06:20:35;-4.60;1.00
20284;DHT22;10301;50.832;4.080;2022-12-18T06:23:03;-4.60;1.00
20284;DHT22;10301;50.832;4.080;2022-12-18T06:25:28;-4.60;1.00
20284;DHT22;10301;50.832;4.080;2022-12-18T06:27:54;-4.50;1.00
20284;DHT22;10301;50.832;4.080;2022-12-18T06:30:20;-4.60;1.00
20284;DHT22;10301;50.832;4.080;2022-12-18T06:32:45;-4.70;1.00
20284;DHT22;10301;50.832;4.080;2022-12-18T06:35:11;-4.70;1.00
20284;DHT22;10301;50.832;4.080;2022-12-18T06:37:37;-4.80;1.00
20284;DHT22;10301;50.832;4.080;2022-12-18T06:40:02;-4.90;1.00
20284;DHT22;10301;50.832;4.080;2022-12-18T06:42:28;-5.00;1.00
20284;DHT22;10301;50.832;4.080;2022-12-18T06:44:54;-4.80;1.00
20284;DHT22;10301;50.832;4.080;2022-12-18T06:47:20;-4.60;1.00
20284;DHT22;10301;50.832;4.080;2022-12-18T06:49:45;-4.30;1.00
20284;DHT22;10301;50.832;4.080;2022-12-18T06:52:11;-4.20;1.00
20284;DHT22;10301;50.832;4.080;2022-12-18T06:54:37;-4.20;1.00
20284;DHT22;10301;50.832;4.080;2022-12-18T06:57:02;-4.10;1.00
20284;DHT22;10301;50.832;4.080;2022-12-18T06:59:28;-4.10;1.00
20284;DHT22;10301;50.832;4.080;2022-12-18T07:01:53;-4.20;1.00
20284;DHT22;10301;50.832;4.080;2022-12-18T07:04:19;-4.20;1.00
20284;DHT22;10301;50.832;4.080;2022-12-18T07:06:45;-4.30;1.00
20284;DHT22;10301;50.832;4.080;2022-12-18T07:09:10;-4.20;1.00
20284;DHT22;10301;50.832;4.080;2022-12-18T07:11:36;-4.10;1.00
20284;DHT22;10301;50.832;4.080;2022-12-18T07:14:02;-4.00;1.00
20284;DHT22;10301;50.832;4.080;2022-12-18T07:16:28;-4.00;1.00
20284;DHT22;10301;50.832;4.080;2022-12-18T07:18:54;-3.90;1.00
20284;DHT22;10301;50.832;4.080;2022-12-18T07:21:21;-3.80;1.00
20284;DHT22;10301;50.832;4.080;2022-12-18T07:23:47;-3.60;1.00
20284;DHT22;10301;50.832;4.080;2022-12-18T07:26:14;-3.70;1.00
20284;DHT22;10301;50.832;4.080;2022-12-18T07:28:41;-3.60;1.00
20284;DHT22;10301;50.832;4.080;2022-12-18T07:31:10;-3.70;1.00
20284;DHT22;10301;50.832;4.080;2022-12-18T07:33:36;-3.60;1.00
20284;DHT22;10301;50.832;4.080;2022-12-18T07:36:04;-3.60;1.00
20284;DHT22;10301;50.832;4.080;2022-12-18T07:38:31;-3.70;1.00
20284;DHT22;10301;50.832;4.080;2022-12-18T07:41:04;-3.60;1.00
20284;DHT22;10301;50.832;4.080;2022-12-18T07:43:30;-3.60;1.00
20284;DHT22;10301;50.832;4.080;2022-12-18T07:45:56;-3.60;1.00
20284;DHT22;10301;50.832;4.080;2022-12-18T07:48:22;-3.70;1.00
20284;DHT22;10301;50.832;4.080;2022-12-18T07:50:47;-3.70;1.00
20284;DHT22;10301;50.832;4.080;2022-12-18T07:53:13;-3.80;1.00
20284;DHT22;10301;50.832;4.080;2022-12-18T07:55:40;-3.70;1.00
20284;DHT22;10301;50.832;4.080;2022-12-18T07:58:07;-3.60;1.00
20284;DHT22;10301;50.832;4.080;2022-12-18T08:00:33;-3.60;1.00
20284;DHT22;10301;50.832;4.080;2022-12-18T08:02:59;-3.70;1.00
20284;DHT22;10301;50.832;4.080;2022-12-18T08:05:25;-3.60;1.00
20284;DHT22;10301;50.832;4.080;2022-12-18T08:07:51;-3.70;1.00
20284;DHT22;10301;50.832;4.080;2022-12-18T08:10:17;-3.70;1.00
20284;DHT22;10301;50.832;4.080;2022-12-18T08:12:42;-3.80;1.00
20284;DHT22;10301;50.832;4.080;2022-12-18T08:15:08;-3.70;1.00
20284;DHT22;10301;50.832;4.080;2022-12-18T08:17:34;-3.40;1.00
20284;DHT22;10301;50.832;4.080;2022-12-18T08:19:59;-3.50;1.00
20284;DHT22;10301;50.832;4.080;2022-12-18T08:22:25;-3.20;1.00
20284;DHT22;10301;50.832;4.080;2022-12-18T08:24:51;-3.10;1.00
20284;DHT22;10301;50.832;4.080;2022-12-18T08:27:17;-2.90;1.00
20284;DHT22;10301;50.832;4.080;2022-12-18T08:29:42;-2.90;1.00
20284;DHT22;10301;50.832;4.080;2022-12-18T08:32:08;-2.80;1.00
20284;DHT22;10301;50.832;4.080;2022-12-18T08:34:33;-2.80;1.00
20284;DHT22;10301;50.832;4.080;2022-12-18T08:37:00;-2.80;1.00
20284;DHT22;10301;50.832;4.080;2022-12-18T08:39:26;-2.70;1.00
20284;DHT22;10301;50.832;4.080;2022-12-18T08:41:52;-2.70;1.00
20284;DHT22;10301;50.832;4.080;2022-12-18T08:44:36;-2.60;1.00
20284;DHT22;10301;50.832;4.080;2022-12-18T08:47:05;-2.40;1.00
20284;DHT22;10301;50.832;4.080;2022-12-18T08:49:31;-2.20;1.00
20284;DHT22;10301;50.832;4.080;2022-12-18T08:51:57;-2.00;1.00
20284;DHT22;10301;50.832;4.080;2022-12-18T08:54:24;-2.10;1.00
20284;DHT22;10301;50.832;4.080;2022-12-18T08:56:50;-1.90;1.00
20284;DHT22;10301;50.832;4.080;2022-12-18T08:59:16;-1.70;1.00
20284;DHT22;10301;50.832;4.080;2022-12-18T09:01:42;-1.60;1.00
20284;DHT22;10301;50.832;4.080;2022-12-18T09:04:09;-1.50;1.00
20284;DHT22;10301;50.832;4.080;2022-12-18T09:06:35;-1.70;1.00
20284;DHT22;10301;50.832;4.080;2022-12-18T09:09:01;-1.60;1.00
20284;DHT22;10301;50.832;4.080;2022-12-18T09:11:28;-1.50;1.00
20284;DHT22;10301;50.832;4.080;2022-12-18T09:13:54;-1.70;1.00
20284;DHT22;10301;50.832;4.080;2022-12-18T09:16:21;-1.60;1.00
20284;DHT22;10301;50.832;4.080;2022-12-18T09:18:47;-1.60;1.00
20284;DHT22;10301;50.832;4.080;2022-12-18T09:21:15;-1.60;1.00
20284;DHT22;10301;50.832;4.080;2022-12-18T09:23:41;-1.50;1.00
20284;DHT22;10301;50.832;4.080;2022-12-18T09:26:07;-1.40;1.00
20284;DHT22;10301;50.832;4.080;2022-12-18T09:28:33;-1.20;1.00
20284;DHT22;10301;50.832;4.080;2022-12-18T09:31:04;-0.80;1.00
20284;DHT22;10301;50.832;4.080;2022-12-18T09:33:30;-0.50;1.00
20284;DHT22;10301;50.832;4.080;2022-12-18T09:35:56;-0.30;1.00
20284;DHT22;10301;50.832;4.080;2022-12-18T09:38:22;-0.40;1.00
20284;DHT22;10301;50.832;4.080;2022-12-18T09:40:52;-0.40;1.00
20284;DHT22;10301;50.832;4.080;2022-12-18T09:43:33;-0.30;1.00
20284;DHT22;10301;50.832;4.080;2022-12-18T09:46:11;0.10;1.00
20284;DHT22;10301;50.832;4.080;2022-12-18T09:48:44;0.20;1.00
20284;DHT22;10301;50.832;4.080;2022-12-18T09:51:24;0.10;1.00
20284;DHT22;10301;50.832;4.080;2022-12-18T09:54:32;0.00;1.00
20284;DHT22;10301;50.832;4.080;2022-12-18T09:56:59;0.10;1.00
20284;DHT22;10301;50.832;4.080;2022-12-18T09:59:31;0.20;1.00
20284;DHT22;10301;50.832;4.080;2022-12-18T10:01:58;0.30;1.00
20284;DHT22;10301;50.832;4.080;2022-12-18T10:04:24;0.60;1.00
20284;DHT22;10301;50.832;4.080;2022-12-18T10:06:57;0.50;1.00
20284;DHT22;10301;50.832;4.080;2022-12-18T10:09:37;0.60;1.00
20284;DHT22;10301;50.832;4.080;2022-12-18T10:13:00;0.60;1.00
20284;DHT22;10301;50.832;4.080;2022-12-18T10:17:54;0.60;1.00
20284;DHT22;10301;50.832;4.080;2022-12-18T10:20:41;0.70;1.00
20284;DHT22;10301;50.832;4.080;2022-12-18T10:28:13;0.80;1.00
20284;DHT22;10301;50.832;4.080;2022-12-18T10:30:41;0.80;1.00
20284;DHT22;10301;50.832;4.080;2022-12-18T10:33:11;1.10;1.00
20284;DHT22;10301;50.832;4.080;2022-12-18T10:35:40;1.10;1.00
20284;DHT22;10301;50.832;4.080;2022-12-18T10:40:33;1.10;1.00
20284;DHT22;10301;50.832;4.080;2022-12-18T10:43:13;1.10;1.00
20284;DHT22;10301;50.832;4.080;2022-12-18T10:45:40;1.00;1.00
20284;DHT22;10301;50.832;4.080;2022-12-18T10:48:19;1.10;1.00
20284;DHT22;10301;50.832;4.080;2022-12-18T10:50:48;1.10;1.00
20284;DHT22;10301;50.832;4.080;2022-12-18T10:53:37;1.20;1.00
20284;DHT22;10301;50.832;4.080;2022-12-18T10:56:04;1.30;1.00
20284;DHT22;10301;50.832;4.080;2022-12-18T10:58:34;1.30;1.00
20284;DHT22;10301;50.832;4.080;2022-12-18T11:01:06;1.60;1.00
20284;DHT22;10301;50.832;4.080;2022-12-18T11:03:46;1.50;1.00
20284;DHT22;10301;50.832;4.080;2022-12-18T11:06:23;1.20;1.00
20284;DHT22;10301;50.832;4.080;2022-12-18T11:11:26;1.40;1.00
20284;DHT22;10301;50.832;4.080;2022-12-18T11:14:05;1.50;1.00
20284;DHT22;10301;50.832;4.080;2022-12-18T11:16:42;1.40;1.00
20284;DHT22;10301;50.832;4.080;2022-12-18T11:22:25;1.80;1.00
20284;DHT22;10301;50.832;4.080;2022-12-18T11:27:39;2.20;99.90
20284;DHT22;10301;50.832;4.080;2022-12-18T11:30:35;2.30;90.60
20284;DHT22;10301;50.832;4.080;2022-12-18T11:33:20;2.00;57.70
20284;DHT22;10301;50.832;4.080;2022-12-18T11:38:26;1.70;99.90
20284;DHT22;10301;50.832;4.080;2022-12-18T11:40:59;1.40;99.90
20284;DHT22;10301;50.832;4.080;2022-12-18T11:43:38;1.10;1.00
20284;DHT22;10301;50.832;4.080;2022-12-18T11:46:10;0.80;1.00
20284;DHT22;10301;50.832;4.080;2022-12-18T11:48:49;0.80;1.00
20284;DHT22;10301;50.832;4.080;2022-12-18T11:51:46;0.80;1.00
20284;DHT22;10301;50.832;4.080;2022-12-18T11:54:14;1.00;1.00
20284;DHT22;10301;50.832;4.080;2022-12-18T11:56:55;1.20;1.00
20284;DHT22;10301;50.832;4.080;2022-12-18T12:05:45;2.00;99.90
20284;DHT22;10301;50.832;4.080;2022-12-18T12:17:38;2.40;1.00
20284;DHT22;10301;50.832;4.080;2022-12-18T12:20:22;2.50;1.00
20284;DHT22;10301;50.832;4.080;2022-12-18T12:23:04;2.60;1.00
20284;DHT22;10301;50.832;4.080;2022-12-18T12:25:45;2.50;99.90
20284;DHT22;10301;50.832;4.080;2022-12-18T12:31:45;2.10;1.00
20284;DHT22;10301;50.832;4.080;2022-12-18T12:34:33;2.00;1.00
20284;DHT22;10301;50.832;4.080;2022-12-18T12:37:12;1.80;1.00
20284;DHT22;10301;50.832;4.080;2022-12-18T12:39:44;2.00;1.00
20284;DHT22;10301;50.832;4.080;2022-12-18T12:42:35;2.10;1.00
20284;DHT22;10301;50.832;4.080;2022-12-18T12:45:39;2.10;1.00
20284;DHT22;10301;50.832;4.080;2022-12-18T12:48:20;2.40;1.00
20284;DHT22;10301;50.832;4.080;2022-12-18T12:50:47;2.60;99.90
20284;DHT22;10301;50.832;4.080;2022-12-18T12:53:34;2.70;1.00
20284;DHT22;10301;50.832;4.080;2022-12-18T12:56:01;2.90;99.90
20284;DHT22;10301;50.832;4.080;2022-12-18T13:04:34;2.40;1.00
20284;DHT22;10301;50.832;4.080;2022-12-18T13:07:13;2.70;1.00
20284;DHT22;10301;50.832;4.080;2022-12-18T13:15:50;2.80;1.00
20284;DHT22;10301;50.832;4.080;2022-12-18T13:18:28;2.80;1.00
20284;DHT22;10301;50.832;4.080;2022-12-18T13:36:45;2.00;1.00
20284;DHT22;10301;50.832;4.080;2022-12-18T13:41:44;1.60;99.90
20284;DHT22;10301;50.832;4.080;2022-12-18T13:44:39;1.50;99.90
20284;DHT22;10301;50.832;4.080;2022-12-18T13:47:31;1.40;1.00
20284;DHT22;10301;50.832;4.080;2022-12-18T13:49:58;1.60;99.90
20284;DHT22;10301;50.832;4.080;2022-12-18T13:52:36;1.60;99.90
20284;DHT22;10301;50.832;4.080;2022-12-18T13:55:05;1.40;1.00
20284;DHT22;10301;50.832;4.080;2022-12-18T13:57:37;1.60;1.00
20284;DHT22;10301;50.832;4.080;2022-12-18T14:00:27;1.70;99.90
20284;DHT22;10301;50.832;4.080;2022-12-18T14:02:55;1.30;99.90
20284;DHT22;10301;50.832;4.080;2022-12-18T14:05:32;1.10;1.00
20284;DHT22;10301;50.832;4.080;2022-12-18T14:08:05;1.00;1.00
20284;DHT22;10301;50.832;4.080;2022-12-18T14:10:32;1.00;1.00
20284;DHT22;10301;50.832;4.080;2022-12-18T14:13:03;1.00;1.00
20284;DHT22;10301;50.832;4.080;2022-12-18T14:15:39;1.30;1.00
20284;DHT22;10301;50.832;4.080;2022-12-18T14:18:21;1.20;99.90
20284;DHT22;10301;50.832;4.080;2022-12-18T14:20:49;1.20;1.00
20284;DHT22;10301;50.832;4.080;2022-12-18T14:26:03;1.10;1.00
20284;DHT22;10301;50.832;4.080;2022-12-18T14:28:29;1.00;1.00
20284;DHT22;10301;50.832;4.080;2022-12-18T14:30:55;0.90;1.00
20284;DHT22;10301;50.832;4.080;2022-12-18T14:33:26;1.10;1.00
20284;DHT22;10301;50.832;4.080;2022-12-18T14:36:04;1.00;1.00
20284;DHT22;10301;50.832;4.080;2022-12-18T14:38:38;1.10;1.00
20284;DHT22;10301;50.832;4.080;2022-12-18T14:41:11;1.10;1.00
20284;DHT22;10301;50.832;4.080;2022-12-18T14:43:39;1.10;1.00
20284;DHT22;10301;50.832;4.080;2022-12-18T14:46:19;1.10;1.00
20284;DHT22;10301;50.832;4.080;2022-12-18T14:48:51;1.10;1.00
20284;DHT22;10301;50.832;4.080;2022-12-18T14:51:31;1.40;1.00
20284;DHT22;10301;50.832;4.080;2022-12-18T14:53:59;1.30;99.90
20284;DHT22;10301;50.832;4.080;2022-12-18T14:56:33;1.50;99.90
20284;DHT22;10301;50.832;4.080;2022-12-18T14:59:02;1.60;99.90
20284;DHT22;10301;50.832;4.080;2022-12-18T15:03:56;1.90;99.10
20284;DHT22;10301;50.832;4.080;2022-12-18T15:06:34;1.80;99.90
20284;DHT22;10301;50.832;4.080;2022-12-18T15:09:03;2.00;99.90
20284;DHT22;10301;50.832;4.080;2022-12-18T15:11:43;2.00;1.00
20284;DHT22;10301;50.832;4.080;2022-12-18T15:14:42;1.70;99.90
20284;DHT22;10301;50.832;4.080;2022-12-18T15:17:19;1.80;99.90
20284;DHT22;10301;50.832;4.080;2022-12-18T15:19:47;2.00;99.90
20284;DHT22;10301;50.832;4.080;2022-12-18T15:22:24;2.20;1.00
20284;DHT22;10301;50.832;4.080;2022-12-18T15:24:50;2.20;1.00
20284;DHT22;10301;50.832;4.080;2022-12-18T15:27:28;2.20;1.00
20284;DHT22;10301;50.832;4.080;2022-12-18T15:32:30;1.90;1.00
20284;DHT22;10301;50.832;4.080;2022-12-18T15:35:21;2.00;1.00
20284;DHT22;10301;50.832;4.080;2022-12-18T15:37:48;1.80;5.50
20284;DHT22;10301;50.832;4.080;2022-12-18T15:40:16;1.60;99.90
20284;DHT22;10301;50.832;4.080;2022-12-18T15:42:43;1.60;99.90
20284;DHT22;10301;50.832;4.080;2022-12-18T15:45:28;1.50;99.90
20284;DHT22;10301;50.832;4.080;2022-12-18T15:47:54;1.40;99.90
20284;DHT22;10301;50.832;4.080;2022-12-18T15:50:20;1.50;99.90
20284;DHT22;10301;50.832;4.080;2022-12-18T15:52:47;1.50;99.90
20284;DHT22;10301;50.832;4.080;2022-12-18T15:55:17;1.80;30.20
20284;DHT22;10301;50.832;4.080;2022-12-18T15:58:02;1.70;1.00
20284;DHT22;10301;50.832;4.080;2022-12-18T16:00:28;1.60;1.00
20284;DHT22;10301;50.832;4.080;2022-12-18T16:02:54;1.70;25.90
20284;DHT22;10301;50.832;4.080;2022-12-18T16:05:20;1.90;1.00
20284;DHT22;10301;50.832;4.080;2022-12-18T16:07:47;2.00;1.00
20284;DHT22;10301;50.832;4.080;2022-12-18T16:10:13;1.90;1.00
20284;DHT22;10301;50.832;4.080;2022-12-18T16:12:39;1.70;1.00
20284;DHT22;10301;50.832;4.080;2022-12-18T16:15:06;1.80;1.00
20284;DHT22;10301;50.832;4.080;2022-12-18T16:17:32;1.80;1.00
20284;DHT22;10301;50.832;4.080;2022-12-18T16:19:58;1.50;99.90
20284;DHT22;10301;50.832;4.080;2022-12-18T16:22:25;1.50;99.90
20284;DHT22;10301;50.832;4.080;2022-12-18T16:24:52;1.40;99.90
20284;DHT22;10301;50.832;4.080;2022-12-18T16:27:19;1.50;99.90
20284;DHT22;10301;50.832;4.080;2022-12-18T16:29:45;1.30;99.90
20284;DHT22;10301;50.832;4.080;2022-12-18T16:32:19;1.30;99.90
20284;DHT22;10301;50.832;4.080;2022-12-18T16:34:45;1.40;99.90
20284;DHT22;10301;50.832;4.080;2022-12-18T16:37:13;1.50;99.90
20284;DHT22;10301;50.832;4.080;2022-12-18T16:39:40;1.80;1.00
20284;DHT22;10301;50.832;4.080;2022-12-18T16:42:17;1.90;1.00
20284;DHT22;10301;50.832;4.080;2022-12-18T16:44:45;1.90;93.30
20284;DHT22;10301;50.832;4.080;2022-12-18T16:47:11;2.00;1.00
20284;DHT22;10301;50.832;4.080;2022-12-18T16:49:37;2.10;1.00
20284;DHT22;10301;50.832;4.080;2022-12-18T16:52:04;2.00;1.00
20284;DHT22;10301;50.832;4.080;2022-12-18T16:54:30;1.90;1.00
20284;DHT22;10301;50.832;4.080;2022-12-18T16:56:56;2.00;1.00
20284;DHT22;10301;50.832;4.080;2022-12-18T16:59:21;1.90;1.00
20284;DHT22;10301;50.832;4.080;2022-12-18T17:01:47;1.80;99.90
20284;DHT22;10301;50.832;4.080;2022-12-18T17:04:13;1.80;99.90
20284;DHT22;10301;50.832;4.080;2022-12-18T17:06:41;1.80;1.00
20284;DHT22;10301;50.832;4.080;2022-12-18T17:09:11;1.80;1.00
20284;DHT22;10301;50.832;4.080;2022-12-18T17:11:39;2.10;99.90
20284;DHT22;10301;50.832;4.080;2022-12-18T17:14:17;2.20;99.90
20284;DHT22;10301;50.832;4.080;2022-12-18T17:16:43;2.10;99.90
20284;DHT22;10301;50.832;4.080;2022-12-18T17:19:10;2.30;99.90
20284;DHT22;10301;50.832;4.080;2022-12-18T17:21:35;2.10;1.00
20284;DHT22;10301;50.832;4.080;2022-12-18T17:24:02;2.00;1.00
20284;DHT22;10301;50.832;4.080;2022-12-18T17:26:28;2.10;1.00
20284;DHT22;10301;50.832;4.080;2022-12-18T17:28:57;1.90;1.00
20284;DHT22;10301;50.832;4.080;2022-12-18T17:31:26;2.10;1.00
20284;DHT22;10301;50.832;4.080;2022-12-18T17:33:52;2.30;1.00
20284;DHT22;10301;50.832;4.080;2022-12-18T17:36:18;2.10;1.00
20284;DHT22;10301;50.832;4.080;2022-12-18T17:38:52;2.10;1.00
20284;DHT22;10301;50.832;4.080;2022-12-18T17:41:17;1.90;1.00
20284;DHT22;10301;50.832;4.080;2022-12-18T17:43:43;1.90;1.00
20284;DHT22;10301;50.832;4.080;2022-12-18T17:46:13;2.10;1.00
20284;DHT22;10301;50.832;4.080;2022-12-18T17:48:39;2.40;1.00